sensor_id;sensor_type;location;lat;lon;timestamp;pressure;altitude;pressure_sealevel;temperature;humidity
61537;BME280;48695;53.480;-6.300;2022-07-29T00:01:55;101191.13;;;18.72;54.92
61537;BME280;48695;53.480;-6.300;2022-07-29T00:04:20;101195.28;;;18.77;54.60
61537;BME280;48695;53.480;-6.300;2022-07-29T00:06:46;101193.84;;;18.70;54.29
61537;BME280;48695;53.480;-6.300;2022-07-29T00:09:11;101206.28;;;18.68;55.18
61537;BME280;48695;53.480;-6.300;2022-07-29T00:11:36;101192.69;;;18.57;54.46
61537;BME280;48695;53.480;-6.300;2022-07-29T00:14:02;101196.97;;;18.59;54.40
61537;BME280;48695;53.480;-6.300;2022-07-29T00:16:27;101206.88;;;18.56;54.24
61537;BME280;48695;53.480;-6.300;2022-07-29T00:18:53;101189.84;;;18.42;54.42
61537;BME280;48695;53.480;-6.300;2022-07-29T00:21:18;101207.13;;;18.50;55.08
61537;BME280;48695;53.480;-6.300;2022-07-29T00:23:44;101212.59;;;18.47;54.78
61537;BME280;48695;53.480;-6.300;2022-07-29T00:26:09;101204.72;;;18.45;55.03
61537;BME280;48695;53.480;-6.300;2022-07-29T00:28:35;101209.13;;;18.45;55.61
61537;BME280;48695;53.480;-6.300;2022-07-29T00:31:00;101200.31;;;18.46;55.68
61537;BME280;48695;53.480;-6.300;2022-07-29T00:33:25;101200.31;;;18.46;55.50
61537;BME280;48695;53.480;-6.300;2022-07-29T00:35:51;101199.38;;;18.47;55.50
61537;BME280;48695;53.480;-6.300;2022-07-29T00:38:18;101194.84;;;18.49;55.54
61537;BME280;48695;53.480;-6.300;2022-07-29T00:40:45;101200.13;;;18.49;56.06
61537;BME280;48695;53.480;-6.300;2022-07-29T00:43:12;101196.72;;;18.47;56.06
61537;BME280;48695;53.480;-6.300;2022-07-29T00:45:39;101195.69;;;18.49;56.41
61537;BME280;48695;53.480;-6.300;2022-07-29T00:48:05;101197.44;;;18.50;57.01
61537;BME280;48695;53.480;-6.300;2022-07-29T00:50:31;101196.56;;;18.50;56.87
61537;BME280;48695;53.480;-6.300;2022-07-29T00:52:57;101185.06;;;18.51;56.51
61537;BME280;48695;53.480;-6.300;2022-07-29T00:55:23;101190.28;;;18.52;56.68
61537;BME280;48695;53.480;-6.300;2022-07-29T00:57:49;101195.56;;;18.52;56.68
61537;BME280;48695;53.480;-6.300;2022-07-29T01:00:21;101189.25;;;18.55;56.86
61537;BME280;48695;53.480;-6.300;2022-07-29T01:02:47;101180.56;;;18.53;56.59
61537;BME280;48695;53.480;-6.300;2022-07-29T01:05:20;101192.69;;;18.57;56.62
61537;BME280;48695;53.480;-6.300;2022-07-29T01:07:49;101180.25;;;18.59;57.24
61537;BME280;48695;53.480;-6.300;2022-07-29T01:10:16;101182.84;;;18.60;57.40
61537;BME280;48695;53.480;-6.300;2022-07-29T01:12:44;101181.06;;;18.61;57.01
61537;BME280;48695;53.480;-6.300;2022-07-29T01:15:11;101169.84;;;18.56;57.19
61537;BME280;48695;53.480;-6.300;2022-07-29T01:28:55;101178.84;;;18.71;56.42
61537;BME280;48695;53.480;-6.300;2022-07-29T01:31:31;101149.66;;;18.53;57.51
61537;BME280;48695;53.480;-6.300;2022-07-29T01:34:02;101170.25;;;18.65;57.85
61537;BME280;48695;53.480;-6.300;2022-07-29T01:36:39;101176.97;;;18.73;57.55
61537;BME280;48695;53.480;-6.300;2022-07-29T01:39:27;101178.69;;;18.74;56.10
61537;BME280;48695;53.480;-6.300;2022-07-29T01:48:02;101182.34;;;18.71;56.80
61537;BME280;48695;53.480;-6.300;2022-07-29T01:50:33;101183.19;;;18.72;57.00
61537;BME280;48695;53.480;-6.300;2022-07-29T01:53:02;101177.97;;;18.70;57.92
61537;BME280;48695;53.480;-6.300;2022-07-29T01:55:32;101179.75;;;18.70;58.04
61537;BME280;48695;53.480;-6.300;2022-07-29T01:58:00;101181.53;;;18.69;58.05
61537;BME280;48695;53.480;-6.300;2022-07-29T02:00:27;101176.25;;;18.69;58.68
61537;BME280;48695;53.480;-6.300;2022-07-29T02:02:55;101181.53;;;18.69;58.96
61537;BME280;48695;53.480;-6.300;2022-07-29T02:05:24;101174.66;;;18.65;58.80
61537;BME280;48695;53.480;-6.300;2022-07-29T02:07:52;101179.69;;;18.71;58.61
61537;BME280;48695;53.480;-6.300;2022-07-29T02:10:22;101185.00;;;18.71;58.63
61537;BME280;48695;53.480;-6.300;2022-07-29T02:12:50;101184.13;;;18.71;59.16
61537;BME280;48695;53.480;-6.300;2022-07-29T02:15:16;101180.59;;;18.70;59.12
61537;BME280;48695;53.480;-6.300;2022-07-29T02:17:46;101182.25;;;18.73;59.28
61537;BME280;48695;53.480;-6.300;2022-07-29T02:20:15;101176.13;;;18.72;59.30
61537;BME280;48695;53.480;-6.300;2022-07-29T02:22:41;101180.47;;;18.73;59.35
61537;BME280;48695;53.480;-6.300;2022-07-29T02:25:10;101176.88;;;18.74;59.48
61537;BME280;48695;53.480;-6.300;2022-07-29T02:27:37;101179.53;;;18.74;59.27
61537;BME280;48695;53.480;-6.300;2022-07-29T02:30:05;101180.47;;;18.73;59.69
61537;BME280;48695;53.480;-6.300;2022-07-29T02:32:34;101165.63;;;18.71;59.07
61537;BME280;48695;53.480;-6.300;2022-07-29T02:35:02;101175.94;;;18.75;59.67
61537;BME280;48695;53.480;-6.300;2022-07-29T02:37:29;101178.53;;;18.77;59.52
61537;BME280;48695;53.480;-6.300;2022-07-29T02:39:56;101179.41;;;18.77;59.25
61537;BME280;48695;53.480;-6.300;2022-07-29T02:42:23;101179.22;;;18.80;56.91
61537;BME280;48695;53.480;-6.300;2022-07-29T02:44:49;101128.09;;;18.44;59.77
61537;BME280;48695;53.480;-6.300;2022-07-29T02:47:57;101175.81;;;18.78;59.54
61537;BME280;48695;53.480;-6.300;2022-07-29T02:50:17;101173.94;;;18.80;58.33
61537;BME280;48695;53.480;-6.300;2022-07-29T02:52:57;101167.97;;;18.77;59.55
61537;BME280;48695;53.480;-6.300;2022-07-29T02:55:45;101164.28;;;18.79;58.26
61537;BME280;48695;53.480;-6.300;2022-07-29T02:58:22;101161.63;;;18.79;59.10
61537;BME280;48695;53.480;-6.300;2022-07-29T03:00:49;101163.53;;;18.77;59.99
61537;BME280;48695;53.480;-6.300;2022-07-29T03:03:18;101146.34;;;18.67;59.39
61537;BME280;48695;53.480;-6.300;2022-07-29T03:05:44;101170.53;;;18.78;59.56
61537;BME280;48695;53.480;-6.300;2022-07-29T03:08:11;101172.16;;;18.81;59.65
61537;BME280;48695;53.480;-6.300;2022-07-29T03:10:39;101173.94;;;18.80;59.18
61537;BME280;48695;53.480;-6.300;2022-07-29T03:13:08;101175.72;;;18.80;59.52
61537;BME280;48695;53.480;-6.300;2022-07-29T03:15:34;101174.81;;;18.81;59.12
61537;BME280;48695;53.480;-6.300;2022-07-29T03:18:01;101171.38;;;18.79;59.91
61537;BME280;48695;53.480;-6.300;2022-07-29T03:20:27;101167.09;;;18.76;59.82
61537;BME280;48695;53.480;-6.300;2022-07-29T03:22:52;101172.94;;;18.83;59.06
61537;BME280;48695;53.480;-6.300;2022-07-29T03:25:19;101158.22;;;18.77;59.33
61537;BME280;48695;53.480;-6.300;2022-07-29T03:27:46;101168.50;;;18.83;59.19
61537;BME280;48695;53.480;-6.300;2022-07-29T03:30:12;101156.53;;;18.76;59.41
61537;BME280;48695;53.480;-6.300;2022-07-29T03:32:38;101158.22;;;18.77;59.12
61537;BME280;48695;53.480;-6.300;2022-07-29T03:35:05;101149.50;;;18.75;59.61
61537;BME280;48695;53.480;-6.300;2022-07-29T03:37:31;101161.50;;;18.82;59.42
61537;BME280;48695;53.480;-6.300;2022-07-29T03:39:57;101152.94;;;18.77;59.48
61537;BME280;48695;53.480;-6.300;2022-07-29T03:42:25;101171.91;;;18.85;59.56
61537;BME280;48695;53.480;-6.300;2022-07-29T03:44:52;101161.63;;;18.79;59.08
61537;BME280;48695;53.480;-6.300;2022-07-29T03:47:23;101164.91;;;18.84;58.84
61537;BME280;48695;53.480;-6.300;2022-07-29T03:49:52;101170.53;;;18.78;59.56
61537;BME280;48695;53.480;-6.300;2022-07-29T03:52:20;101173.94;;;18.80;59.39
61537;BME280;48695;53.480;-6.300;2022-07-29T03:54:47;101184.47;;;18.82;59.01
61537;BME280;48695;53.480;-6.300;2022-07-29T03:57:13;101163.66;;;18.74;59.27
61537;BME280;48695;53.480;-6.300;2022-07-29T03:59:40;101174.97;;;18.78;59.39
61537;BME280;48695;53.480;-6.300;2022-07-29T04:02:08;101185.22;;;18.84;59.04
61537;BME280;48695;53.480;-6.300;2022-07-29T04:04:35;101177.81;;;18.73;59.56
61537;BME280;48695;53.480;-6.300;2022-07-29T04:07:00;101194.19;;;18.81;59.27
61537;BME280;48695;53.480;-6.300;2022-07-29T04:09:26;101186.31;;;18.80;59.49
61537;BME280;48695;53.480;-6.300;2022-07-29T04:11:52;101187.34;;;18.77;59.91
61537;BME280;48695;53.480;-6.300;2022-07-29T04:14:18;101191.06;;;18.73;60.51
61537;BME280;48695;53.480;-6.300;2022-07-29T04:16:43;101200.88;;;18.71;61.16
61537;BME280;48695;53.480;-6.300;2022-07-29T04:19:09;101201.09;;;18.65;63.30
61537;BME280;48695;53.480;-6.300;2022-07-29T04:21:40;101207.50;;;18.61;62.55
61537;BME280;48695;53.480;-6.300;2022-07-29T04:24:07;101207.13;;;18.50;64.70
61537;BME280;48695;53.480;-6.300;2022-07-29T04:26:33;101212.88;;;18.40;64.72
61537;BME280;48695;53.480;-6.300;2022-07-29T04:28:59;101209.09;;;18.27;66.22
61537;BME280;48695;53.480;-6.300;2022-07-29T04:31:24;101198.16;;;18.16;66.24
61537;BME280;48695;53.480;-6.300;2022-07-29T04:33:50;101203.56;;;18.13;66.86
61537;BME280;48695;53.480;-6.300;2022-07-29T04:36:15;101152.50;;;17.75;66.80
61537;BME280;48695;53.480;-6.300;2022-07-29T04:38:40;101203.09;;;18.05;67.28
61537;BME280;48695;53.480;-6.300;2022-07-29T04:41:06;101200.56;;;18.02;66.84
61537;BME280;48695;53.480;-6.300;2022-07-29T04:43:34;101188.72;;;17.92;66.95
61537;BME280;48695;53.480;-6.300;2022-07-29T04:45:59;101204.16;;;18.01;66.54
61537;BME280;48695;53.480;-6.300;2022-07-29T04:48:25;101210.38;;;18.00;67.43
61537;BME280;48695;53.480;-6.300;2022-07-29T04:50:51;101204.16;;;18.01;67.07
61537;BME280;48695;53.480;-6.300;2022-07-29T04:53:19;101198.25;;;17.94;67.39
61537;BME280;48695;53.480;-6.300;2022-07-29T04:55:45;101205.84;;;18.02;68.10
61537;BME280;48695;53.480;-6.300;2022-07-29T04:58:11;101212.72;;;18.06;67.95
61537;BME280;48695;53.480;-6.300;2022-07-29T05:00:36;101205.56;;;18.08;68.32
61537;BME280;48695;53.480;-6.300;2022-07-29T05:03:03;101198.50;;;18.08;67.05
61537;BME280;48695;53.480;-6.300;2022-07-29T05:05:29;101196.56;;;18.12;68.64
61537;BME280;48695;53.480;-6.300;2022-07-29T05:07:54;101200.84;;;18.14;68.78
61537;BME280;48695;53.480;-6.300;2022-07-29T05:10:20;101199.09;;;18.15;68.59
61537;BME280;48695;53.480;-6.300;2022-07-29T05:12:45;101200.59;;;18.21;68.96
61537;BME280;48695;53.480;-6.300;2022-07-29T05:15:11;101199.56;;;18.23;68.59
61537;BME280;48695;53.480;-6.300;2022-07-29T05:17:36;101180.72;;;18.12;68.14
61537;BME280;48695;53.480;-6.300;2022-07-29T05:20:02;101201.16;;;18.27;68.41
61537;BME280;48695;53.480;-6.300;2022-07-29T05:22:28;101200.16;;;18.30;68.20
61537;BME280;48695;53.480;-6.300;2022-07-29T05:24:53;101197.44;;;18.31;68.41
61537;BME280;48695;53.480;-6.300;2022-07-29T05:27:19;101192.00;;;18.34;68.52
61537;BME280;48695;53.480;-6.300;2022-07-29T05:29:44;101167.84;;;18.23;68.36
61537;BME280;48695;53.480;-6.300;2022-07-29T05:32:09;101186.56;;;18.37;67.81
61537;BME280;48695;53.480;-6.300;2022-07-29T05:34:35;101195.34;;;18.38;68.16
61537;BME280;48695;53.480;-6.300;2022-07-29T05:37:00;101200.56;;;18.39;67.72
61537;BME280;48695;53.480;-6.300;2022-07-29T05:39:26;101201.44;;;18.40;67.33
61537;BME280;48695;53.480;-6.300;2022-07-29T05:41:51;101198.81;;;18.40;66.81
61537;BME280;48695;53.480;-6.300;2022-07-29T05:44:17;101200.56;;;18.39;66.47
61537;BME280;48695;53.480;-6.300;2022-07-29T05:46:42;101200.56;;;18.39;67.86
61537;BME280;48695;53.480;-6.300;2022-07-29T05:49:07;101204.16;;;18.38;66.71
61537;BME280;48695;53.480;-6.300;2022-07-29T05:51:33;101202.44;;;18.37;66.73
61537;BME280;48695;53.480;-6.300;2022-07-29T05:53:59;101207.72;;;18.37;66.73
61537;BME280;48695;53.480;-6.300;2022-07-29T05:56:24;101206.00;;;18.36;67.37
61537;BME280;48695;53.480;-6.300;2022-07-29T05:58:50;101204.16;;;18.38;67.28
61537;BME280;48695;53.480;-6.300;2022-07-29T06:01:15;101205.00;;;18.39;66.63
61537;BME280;48695;53.480;-6.300;2022-07-29T06:03:41;101189.59;;;18.30;66.95
61537;BME280;48695;53.480;-6.300;2022-07-29T06:06:07;101205.72;;;18.42;66.46
61537;BME280;48695;53.480;-6.300;2022-07-29T06:08:33;101195.00;;;18.46;66.83
61537;BME280;48695;53.480;-6.300;2022-07-29T06:10:59;101201.06;;;18.48;66.54
61537;BME280;48695;53.480;-6.300;2022-07-29T06:13:25;101208.88;;;18.51;66.90
61537;BME280;48695;53.480;-6.300;2022-07-29T06:15:50;101205.22;;;18.53;66.51
61537;BME280;48695;53.480;-6.300;2022-07-29T06:18:16;101204.28;;;18.54;66.41
61537;BME280;48695;53.480;-6.300;2022-07-29T06:20:42;101194.72;;;18.52;66.37
61537;BME280;48695;53.480;-6.300;2022-07-29T06:23:07;101196.13;;;18.59;66.16
61537;BME280;48695;53.480;-6.300;2022-07-29T06:25:33;101176.41;;;18.47;65.95
61537;BME280;48695;53.480;-6.300;2022-07-29T06:28:00;101195.72;;;18.68;63.96
61537;BME280;48695;53.480;-6.300;2022-07-29T06:30:26;101208.13;;;18.66;65.85
61537;BME280;48695;53.480;-6.300;2022-07-29T06:32:52;101208.94;;;18.68;66.36
61537;BME280;48695;53.480;-6.300;2022-07-29T06:35:17;101211.69;;;18.65;66.10
61537;BME280;48695;53.480;-6.300;2022-07-29T06:37:43;101217.66;;;18.70;66.79
61537;BME280;48695;53.480;-6.300;2022-07-29T06:40:09;101214.88;;;18.73;66.47
61537;BME280;48695;53.480;-6.300;2022-07-29T06:42:53;101216.53;;;18.76;66.60
61537;BME280;48695;53.480;-6.300;2022-07-29T06:45:18;101217.28;;;18.78;66.62
61537;BME280;48695;53.480;-6.300;2022-07-29T06:47:44;101210.97;;;18.80;66.54
61537;BME280;48695;53.480;-6.300;2022-07-29T06:50:09;101217.84;;;18.84;66.87
61537;BME280;48695;53.480;-6.300;2022-07-29T06:52:38;101223.00;;;18.87;66.72
61537;BME280;48695;53.480;-6.300;2022-07-29T06:55:03;101227.22;;;18.91;66.37
61537;BME280;48695;53.480;-6.300;2022-07-29T06:57:29;101226.09;;;18.96;65.89
61537;BME280;48695;53.480;-6.300;2022-07-29T06:59:56;101222.38;;;19.00;65.78
61537;BME280;48695;53.480;-6.300;2022-07-29T07:02:22;101209.53;;;18.92;65.85
61537;BME280;48695;53.480;-6.300;2022-07-29T07:04:47;101222.06;;;19.06;66.08
61537;BME280;48695;53.480;-6.300;2022-07-29T07:07:12;101227.13;;;19.10;65.88
61537;BME280;48695;53.480;-6.300;2022-07-29T07:09:38;101228.78;;;19.13;65.63
61537;BME280;48695;53.480;-6.300;2022-07-29T07:12:03;101221.78;;;19.12;65.58
61537;BME280;48695;53.480;-6.300;2022-07-29T07:14:29;101219.19;;;19.10;65.38
61537;BME280;48695;53.480;-6.300;2022-07-29T07:16:54;101226.44;;;19.24;65.56
61537;BME280;48695;53.480;-6.300;2022-07-29T07:19:20;101218.59;;;19.23;64.50
61537;BME280;48695;53.480;-6.300;2022-07-29T07:21:45;101184.47;;;18.99;65.00
61537;BME280;48695;53.480;-6.300;2022-07-29T07:24:11;101215.00;;;19.24;65.16
61537;BME280;48695;53.480;-6.300;2022-07-29T07:26:36;101235.41;;;19.39;65.59
61537;BME280;48695;53.480;-6.300;2022-07-29T07:29:02;101234.25;;;19.44;64.68
61537;BME280;48695;53.480;-6.300;2022-07-29T07:31:27;101239.16;;;19.52;64.77
61537;BME280;48695;53.480;-6.300;2022-07-29T07:33:52;101239.69;;;19.59;65.13
61537;BME280;48695;53.480;-6.300;2022-07-29T07:36:18;101233.97;;;19.68;64.91
61537;BME280;48695;53.480;-6.300;2022-07-29T07:38:44;101229.09;;;19.76;64.54
61537;BME280;48695;53.480;-6.300;2022-07-29T07:41:09;101233.91;;;19.85;64.79
61537;BME280;48695;53.480;-6.300;2022-07-29T07:43:35;101238.72;;;19.94;64.76
61537;BME280;48695;53.480;-6.300;2022-07-29T07:46:00;101231.38;;;20.00;64.54
61537;BME280;48695;53.480;-6.300;2022-07-29T07:48:25;101239.47;;;20.14;64.40
61537;BME280;48695;53.480;-6.300;2022-07-29T07:50:51;101244.28;;;20.23;64.24
61537;BME280;48695;53.480;-6.300;2022-07-29T07:53:16;101244.63;;;20.33;63.77
61537;BME280;48695;53.480;-6.300;2022-07-29T07:55:42;101239.66;;;20.42;64.03
61537;BME280;48695;53.480;-6.300;2022-07-29T07:58:08;101243.63;;;20.51;63.33
61537;BME280;48695;53.480;-6.300;2022-07-29T08:00:34;101245.88;;;20.59;63.44
61537;BME280;48695;53.480;-6.300;2022-07-29T08:02:59;101238.66;;;20.61;63.60
61537;BME280;48695;53.480;-6.300;2022-07-29T08:05:25;101253.84;;;20.75;63.41
61537;BME280;48695;53.480;-6.300;2022-07-29T08:07:50;101249.78;;;20.83;62.17
61537;BME280;48695;53.480;-6.300;2022-07-29T08:10:17;101258.16;;;20.91;61.64
61537;BME280;48695;53.480;-6.300;2022-07-29T08:13:05;101249.59;;;21.02;61.84
61537;BME280;48695;53.480;-6.300;2022-07-29T08:15:31;101237.00;;;21.06;61.38
61537;BME280;48695;53.480;-6.300;2022-07-29T08:17:57;101238.44;;;21.11;61.76
61537;BME280;48695;53.480;-6.300;2022-07-29T08:20:22;101234.47;;;21.18;61.67
61537;BME280;48695;53.480;-6.300;2022-07-29T08:22:47;101239.34;;;21.26;61.28
61537;BME280;48695;53.480;-6.300;2022-07-29T08:25:13;101236.19;;;21.35;61.42
61537;BME280;48695;53.480;-6.300;2022-07-29T08:27:38;101233.84;;;21.45;61.11
61537;BME280;48695;53.480;-6.300;2022-07-29T08:30:04;101215.88;;;21.48;60.97
61537;BME280;48695;53.480;-6.300;2022-07-29T08:32:30;101223.13;;;21.61;60.10
61537;BME280;48695;53.480;-6.300;2022-07-29T08:34:56;101221.63;;;21.71;60.11
61537;BME280;48695;53.480;-6.300;2022-07-29T08:37:22;101229.97;;;21.79;58.88
61537;BME280;48695;53.480;-6.300;2022-07-29T08:39:47;101220.69;;;21.86;59.17
61537;BME280;48695;53.480;-6.300;2022-07-29T08:42:13;101215.00;;;21.92;59.28
61537;BME280;48695;53.480;-6.300;2022-07-29T08:44:39;101212.72;;;22.00;59.20
61537;BME280;48695;53.480;-6.300;2022-07-29T08:47:05;101210.41;;;22.09;58.87
61537;BME280;48695;53.480;-6.300;2022-07-29T08:49:33;101207.09;;;22.19;58.79
61537;BME280;48695;53.480;-6.300;2022-07-29T08:51:59;101200.53;;;22.25;58.54
61537;BME280;48695;53.480;-6.300;2022-07-29T08:54:25;101203.59;;;22.33;56.94
61537;BME280;48695;53.480;-6.300;2022-07-29T08:56:51;101205.56;;;22.44;57.98
61537;BME280;48695;53.480;-6.300;2022-07-29T08:59:19;101209.31;;;22.54;57.34
61537;BME280;48695;53.480;-6.300;2022-07-29T09:01:46;101211.59;;;22.60;56.89
61537;BME280;48695;53.480;-6.300;2022-07-29T09:04:13;101204.94;;;22.67;57.60
61537;BME280;48695;53.480;-6.300;2022-07-29T09:06:43;101214.69;;;22.81;56.74
61537;BME280;48695;53.480;-6.300;2022-07-29T09:09:09;101207.06;;;22.89;57.09
61537;BME280;48695;53.480;-6.300;2022-07-29T09:11:35;101211.78;;;22.98;56.41
61537;BME280;48695;53.480;-6.300;2022-07-29T09:14:01;101213.81;;;23.08;55.67
61537;BME280;48695;53.480;-6.300;2022-07-29T09:16:43;101208.00;;;23.28;55.74
61537;BME280;48695;53.480;-6.300;2022-07-29T09:19:36;101207.38;;;23.37;55.49
61537;BME280;48695;53.480;-6.300;2022-07-29T09:22:04;101208.00;;;23.41;53.82
61537;BME280;48695;53.480;-6.300;2022-07-29T09:24:37;101210.91;;;23.50;54.18
61537;BME280;48695;53.480;-6.300;2022-07-29T09:27:25;101194.59;;;23.55;54.21
61537;BME280;48695;53.480;-6.300;2022-07-29T09:30:04;101207.00;;;23.69;54.54
61537;BME280;48695;53.480;-6.300;2022-07-29T09:32:31;101212.75;;;23.75;52.15
61537;BME280;48695;53.480;-6.300;2022-07-29T09:37:41;101203.88;;;24.00;52.05
61537;BME280;48695;53.480;-6.300;2022-07-29T09:40:20;101206.72;;;24.23;52.87
61537;BME280;48695;53.480;-6.300;2022-07-29T09:42:47;101205.84;;;24.35;52.00
61537;BME280;48695;53.480;-6.300;2022-07-29T09:45:26;101185.38;;;24.59;52.70
61537;BME280;48695;53.480;-6.300;2022-07-29T09:47:52;101197.28;;;24.79;50.53
61537;BME280;48695;53.480;-6.300;2022-07-29T09:50:17;101199.72;;;24.94;50.80
61537;BME280;48695;53.480;-6.300;2022-07-29T09:52:50;101200.75;;;25.04;49.62
61537;BME280;48695;53.480;-6.300;2022-07-29T09:55:16;101199.81;;;25.05;50.31
61537;BME280;48695;53.480;-6.300;2022-07-29T09:57:42;101195.31;;;25.05;50.04
61537;BME280;48695;53.480;-6.300;2022-07-29T10:00:09;101191.47;;;25.09;49.98
61537;BME280;48695;53.480;-6.300;2022-07-29T10:02:36;101194.16;;;25.09;48.96
61537;BME280;48695;53.480;-6.300;2022-07-29T10:05:05;101197.66;;;25.10;49.88
61537;BME280;48695;53.480;-6.300;2022-07-29T10:10:09;101167.41;;;24.85;49.80
61537;BME280;48695;53.480;-6.300;2022-07-29T10:12:48;101186.78;;;25.00;50.20
61537;BME280;48695;53.480;-6.300;2022-07-29T10:15:15;101190.78;;;24.95;49.74
61537;BME280;48695;53.480;-6.300;2022-07-29T10:17:41;101196.00;;;24.96;48.96
61537;BME280;48695;53.480;-6.300;2022-07-29T10:20:07;101191.63;;;24.95;49.66
61537;BME280;48695;53.480;-6.300;2022-07-29T10:22:33;101186.25;;;24.84;49.53
61537;BME280;48695;53.480;-6.300;2022-07-29T10:24:59;101188.16;;;24.82;48.93
61537;BME280;48695;53.480;-6.300;2022-07-29T10:27:24;101209.31;;;24.85;49.41
61537;BME280;48695;53.480;-6.300;2022-07-29T10:29:50;101199.78;;;24.70;48.56
61537;BME280;48695;53.480;-6.300;2022-07-29T10:38:04;101198.16;;;24.43;49.66
61537;BME280;48695;53.480;-6.300;2022-07-29T10:40:39;101199.00;;;24.31;50.02
61537;BME280;48695;53.480;-6.300;2022-07-29T10:43:33;101194.13;;;24.25;49.86
61537;BME280;48695;53.480;-6.300;2022-07-29T10:46:02;101188.47;;;24.17;49.88
61537;BME280;48695;53.480;-6.300;2022-07-29T10:48:28;101202.34;;;24.22;49.14
61537;BME280;48695;53.480;-6.300;2022-07-29T10:50:55;101204.28;;;24.20;48.36
61537;BME280;48695;53.480;-6.300;2022-07-29T10:53:21;101200.22;;;24.14;48.73
61537;BME280;48695;53.480;-6.300;2022-07-29T10:55:47;101202.47;;;24.07;49.25
61537;BME280;48695;53.480;-6.300;2022-07-29T10:58:15;101202.91;;;24.01;50.03
61537;BME280;48695;53.480;-6.300;2022-07-29T11:00:41;101199.50;;;23.99;49.34
61537;BME280;48695;53.480;-6.300;2022-07-29T11:03:07;101191.50;;;23.99;49.93
61537;BME280;48695;53.480;-6.300;2022-07-29T11:05:52;101183.91;;;24.06;50.48
61537;BME280;48695;53.480;-6.300;2022-07-29T11:08:20;101180.31;;;23.94;49.74
61537;BME280;48695;53.480;-6.300;2022-07-29T11:10:51;101195.44;;;24.06;49.76
61537;BME280;48695;53.480;-6.300;2022-07-29T11:16:16;101184.75;;;24.06;49.08
61537;BME280;48695;53.480;-6.300;2022-07-29T11:21:36;101200.16;;;24.03;49.66
61537;BME280;48695;53.480;-6.300;2022-07-29T11:24:26;101197.38;;;24.04;49.89
61537;BME280;48695;53.480;-6.300;2022-07-29T11:27:09;101198.53;;;24.00;49.98
61537;BME280;48695;53.480;-6.300;2022-07-29T11:29:39;101203.34;;;23.95;50.02
61537;BME280;48695;53.480;-6.300;2022-07-29T11:32:13;101204.75;;;23.88;49.82
61537;BME280;48695;53.480;-6.300;2022-07-29T11:34:40;101218.09;;;23.88;49.52
61537;BME280;48695;53.480;-6.300;2022-07-29T11:39:39;101201.44;;;23.85;50.25
61537;BME280;48695;53.480;-6.300;2022-07-29T11:44:55;101198.97;;;23.94;50.20
61537;BME280;48695;53.480;-6.300;2022-07-29T11:47:21;101193.41;;;23.97;50.29
61537;BME280;48695;53.480;-6.300;2022-07-29T11:49:48;101195.56;;;24.05;50.27
61537;BME280;48695;53.480;-6.300;2022-07-29T11:52:15;101186.91;;;24.14;50.46
61537;BME280;48695;53.480;-6.300;2022-07-29T11:54:42;101189.06;;;24.33;50.11
61537;BME280;48695;53.480;-6.300;2022-07-29T11:57:08;101187.53;;;24.54;50.50
61537;BME280;48695;53.480;-6.300;2022-07-29T11:59:43;101179.16;;;24.83;50.09
61537;BME280;48695;53.480;-6.300;2022-07-29T12:02:10;101179.13;;;24.96;49.30
61537;BME280;48695;53.480;-6.300;2022-07-29T12:04:56;101181.38;;;25.13;49.70
61537;BME280;48695;53.480;-6.300;2022-07-29T12:07:32;101180.53;;;25.13;48.28
61537;BME280;48695;53.480;-6.300;2022-07-29T12:09:58;101183.34;;;24.98;47.98
61537;BME280;48695;53.480;-6.300;2022-07-29T12:12:24;101185.53;;;24.93;47.73
61537;BME280;48695;53.480;-6.300;2022-07-29T12:14:50;101188.31;;;24.92;47.88
61537;BME280;48695;53.480;-6.300;2022-07-29T12:17:31;101176.78;;;24.91;48.38
61537;BME280;48695;53.480;-6.300;2022-07-29T12:19:59;101175.78;;;24.81;47.95
61537;BME280;48695;53.480;-6.300;2022-07-29T12:22:30;101183.06;;;24.79;47.80
61537;BME280;48695;53.480;-6.300;2022-07-29T12:25:17;101186.91;;;24.75;48.86
61537;BME280;48695;53.480;-6.300;2022-07-29T12:27:43;101177.13;;;24.63;48.00
61537;BME280;48695;53.480;-6.300;2022-07-29T12:30:14;101175.69;;;24.58;48.33
61537;BME280;48695;53.480;-6.300;2022-07-29T12:32:47;101184.03;;;24.54;48.81
61537;BME280;48695;53.480;-6.300;2022-07-29T12:35:16;101187.25;;;24.46;48.56
61537;BME280;48695;53.480;-6.300;2022-07-29T12:37:44;101181.38;;;24.41;48.61
61537;BME280;48695;53.480;-6.300;2022-07-29T12:40:12;101177.22;;;24.37;49.33
61537;BME280;48695;53.480;-6.300;2022-07-29T12:42:39;101181.06;;;24.33;49.34
61537;BME280;48695;53.480;-6.300;2022-07-29T12:45:06;101177.66;;;24.31;49.76
61537;BME280;48695;53.480;-6.300;2022-07-29T12:47:32;101169.44;;;24.34;50.01
61537;BME280;48695;53.480;-6.300;2022-07-29T12:50:12;101164.81;;;24.49;50.14
61537;BME280;48695;53.480;-6.300;2022-07-29T12:52:40;101169.53;;;24.69;50.51
61537;BME280;48695;53.480;-6.300;2022-07-29T12:55:06;101166.88;;;25.04;51.10
61537;BME280;48695;53.480;-6.300;2022-07-29T12:57:32;101168.72;;;25.61;49.75
61537;BME280;48695;53.480;-6.300;2022-07-29T13:00:11;101165.78;;;26.32;48.26
61537;BME280;48695;53.480;-6.300;2022-07-29T13:02:38;101164.50;;;26.90;46.49
61537;BME280;48695;53.480;-6.300;2022-07-29T13:05:06;101172.19;;;27.37;45.18
61537;BME280;48695;53.480;-6.300;2022-07-29T13:07:34;101161.47;;;27.67;44.24
61537;BME280;48695;53.480;-6.300;2022-07-29T13:10:14;101137.00;;;27.82;46.06
61537;BME280;48695;53.480;-6.300;2022-07-29T13:15:27;101150.66;;;28.09;43.84
61537;BME280;48695;53.480;-6.300;2022-07-29T13:17:53;101148.53;;;28.13;43.11
61537;BME280;48695;53.480;-6.300;2022-07-29T13:20:18;101148.97;;;28.08;43.32
61537;BME280;48695;53.480;-6.300;2022-07-29T13:22:47;101151.06;;;28.05;43.77
61537;BME280;48695;53.480;-6.300;2022-07-29T13:25:13;101151.59;;;27.89;43.57
61537;BME280;48695;53.480;-6.300;2022-07-29T13:27:39;101155.94;;;27.80;43.87